• Join FlightAware (Why Join?)
  • Login
  • US Flag 
Rudolph Flight #1: Scheduled 
11:55PM EST


 

Airport Tracker/Info


-or-


 

Live Flight TrackerFlight Track Log ✈ ASQ5740 ✈ 10-Nov-2013 ✈ KGSP - KIAD

Flight Track Log - Related Links

Times and Time Zones

All times are in EST time to prevent confusion due to time zone crossing. See the ASQ5740 flight status page for this flight to view local times or setup timezone preferences in your user account.

Time Position Orientation Groundspeed Altitude Reporting Facility
EST Latitude Longitude Course Direction KTS MPH feet Rate Location/Type
02:52PM 35.0439 -82.1106 17° North 277 319 6,700  Level Atlanta Center
02:53PM 35.2237 -81.8594 North  Level Estimated
02:53PM 35.1033 -82.0458 42° Northeast 283 326 9,200  Level Atlanta Center
02:54PM 35.3055 -81.7691 North  Level Estimated
02:54PM 35.1731 -81.9806 37° Northeast 294 338 10,000  Level Atlanta Center
02:55PM 35.3872 -81.6786 71° East  Level Estimated
02:55PM 35.2600 -81.9403 21° North 320 368 11,400  Level Atlanta Center
02:56PM 35.4923 -81.6380 17° North  Level FlightAware Approximate
02:56PM 35.3508 -81.8844 27° Northeast 332 382 12,600  Level Atlanta Center
02:57PM 35.3967 -81.7586 66° East 365 420 14,100 1,320 Climbing Atlanta Center
02:58PM 35.4444 -81.6347 65° Northeast 376 433 15,300 1,080 Climbing Atlanta Center
02:59PM 35.4917 -81.5008 67° East 396 456 16,300 960 Climbing Atlanta Center
03:00PM 35.5392 -81.3742 65° Northeast 408 470 17,300 900 Climbing Atlanta Center
03:01PM 35.5900 -81.2297 67° East 425 489 18,200 900 Climbing Atlanta Center
03:02PM 35.6389 -81.0900 67° East 436 502 19,200 960 Climbing Atlanta Center
03:03PM 35.6900 -80.9525 65° Northeast 436 502 20,200 1,080 Climbing Atlanta Center
03:04PM 35.7406 -80.8100 66° East 425 489 21,400 1,080 Climbing Atlanta Center
03:05PM 35.7931 -80.6722 65° Northeast 425 489 22,400 900 Climbing Atlanta Center
03:06PM 35.8414 -80.5344 67° East 425 489 23,300 900 Climbing Atlanta Center
03:08PM 35.9228 -80.3217 65° Northeast 426 490 25,000 840 Climbing Washington Center
03:09PM 35.9717 -80.1911 65° Northeast 426 490 25,600 540 Climbing Washington Center
03:10PM 36.0231 -80.0478 66° East 433 498 26,100 480 Climbing Washington Center
03:11PM 36.0819 -79.9200 60° Northeast 433 498 26,600 480 Climbing Washington Center
03:12PM 36.1533 -79.7928 55° Northeast 433 498 27,100 540 Climbing Washington Center
03:13PM 36.2244 -79.6678 55° Northeast 443 510 27,700 420 Climbing Washington Center
03:14PM 36.2975 -79.5378 55° Northeast 448 516 28,000 120 Climbing Washington Center
03:15PM 36.3772 -79.3997 54° Northeast 448 516 28,000  Level Washington Center
03:16PM 36.4483 -79.2639 57° Northeast 453 521 28,000  Level Washington Center
03:17PM 36.5231 -79.1303 55° Northeast 458 527 28,000 -300 Level Washington Center
03:18PM 36.5978 -78.9992 55° Northeast 458 527 27,400 -1,320 Descending Washington Center
03:19PM 36.6661 -78.8703 57° Northeast 473 544 25,400 -1,740 Descending Washington Center
03:20PM 36.7428 -78.7333 55° Northeast 481 554 24,000 -720 Descending Washington Center
03:21PM 36.8175 -78.5936 56° Northeast 476 548 24,000  Level Washington Center
03:22PM 36.8894 -78.4614 56° Northeast 471 542 24,000  Level Washington Center
03:23PM 36.9744 -78.3086 55° Northeast 480 552 24,000 -120 Level Washington Center
03:24PM 37.0606 -78.1867 48° Northeast 472 543 23,800 -720 Descending Washington Center
03:25PM 37.1497 -78.1194 31° Northeast 430 495 22,600 -900 Descending Washington Center
03:26PM 37.2514 -78.0419 31° Northeast 425 489 22,000 -360 Descending Washington Center
03:27PM 37.3508 -77.9667 31° Northeast 420 483 22,000  Level Washington Center
03:28PM 37.4506 -77.8886 32° Northeast 420 483 22,000  Level Washington Center
03:29PM 37.5519 -77.8131 31° Northeast 415 478 22,000 -120 Level Washington Center
03:30PM 37.6575 -77.7533 24° Northeast 410 472 21,800 -1,440 Descending Washington Center
03:31PM 37.7586 -77.6931 25° Northeast 405 466 19,200 -2,460 Descending Washington Center
03:32PM 37.8556 -77.6353 25° Northeast 393 452 16,800 -2,340 Descending Washington Center
03:33PM 37.9461 -77.5825 25° Northeast 372 428 14,600 -2,340 Descending Washington Center
03:34PM 38.0408 -77.5297 24° Northeast 340 391 12,300 -2,160 Descending Washington Center
03:35PM 38.1208 -77.4817 25° Northeast 323 372 10,300 -1,200 Descending Washington Center
03:36PM 38.1903 -77.4411 25° Northeast 299 344 9,900 -600 Descending Washington Center
03:37PM 38.2611 -77.4456 357° North 257 296 9,100 -900 Descending Washington Center
03:38PM 38.3297 -77.4656 347° North 251 289 8,100 -1,020 Descending Washington Center
03:39PM 38.4006 -77.4700 357° North 251 289 7,100 -960 Descending Washington Center
03:40PM 38.4775 -77.4694 360° North 261 300 6,300 -660 Descending Washington Center
03:41PM 38.5506 -77.4658 North 261 300 5,800 -360 Descending Washington Center
03:42PM 38.6258 -77.4653 360° North 266 306 5,600 -300 Descending Washington Center
03:43PM 38.6986 -77.4644 North 266 306 5,300 -840 Descending Washington Center
03:43PM 38.7333 -77.4667 357° North 246 283 4,400 -1,500 Descending Potomac TRACON
03:44PM 38.8000 -77.4667 360° North 203 234 3,200 -1,080 Descending Potomac TRACON
03:45PM 38.8333 -77.4667 360° North 151 174 2,400 -840 Descending Potomac TRACON
03:46PM 38.8833 -77.4667 360° North 141 162 1,600 -780 Descending Potomac TRACON
03:47PM 38.9167 -77.4667 360° North 128 147 900 -720 Descending Potomac TRACON